createdAt,value
2023-02-28T00:01:28.502Z,1.67
2023-02-28T00:03:56.384Z,1.48
2023-02-28T00:06:24.320Z,2.03
2023-02-28T00:08:52.181Z,2.85
2023-02-28T00:11:19.936Z,1.85
2023-02-28T00:13:48.557Z,2.40
2023-02-28T00:16:17.796Z,2.50
2023-02-28T00:18:45.735Z,1.98
2023-02-28T00:21:13.328Z,2.20
2023-02-28T00:23:40.910Z,2.03
2023-02-28T00:26:08.459Z,2.35
2023-02-28T00:28:35.991Z,2.28
2023-02-28T00:31:07.488Z,2.55
2023-02-28T00:33:35.129Z,2.08
2023-02-28T00:36:04.118Z,2.63
2023-02-28T00:38:31.712Z,2.33
2023-02-28T00:41:00.398Z,2.75
2023-02-28T00:43:27.943Z,2.17
2023-02-28T00:45:55.816Z,2.42
2023-02-28T00:48:23.393Z,2.17
2023-02-28T00:50:51.694Z,3.03
2023-02-28T00:53:19.681Z,2.35
2023-02-28T00:55:47.209Z,2.05
2023-02-28T00:58:14.797Z,1.95
2023-02-28T01:00:42.325Z,1.45
2023-02-28T01:03:09.841Z,1.92
2023-02-28T01:05:37.380Z,1.33
2023-02-28T01:08:04.999Z,1.48
2023-02-28T01:10:35.197Z,2.35
2023-02-28T01:13:02.764Z,1.92
2023-02-28T01:15:30.470Z,2.22
2023-02-28T01:17:57.981Z,1.45
2023-02-28T01:20:25.919Z,2.22
2023-02-28T01:22:54.293Z,2.40
2023-02-28T01:25:21.911Z,1.90
2023-02-28T01:27:49.423Z,1.98
2023-02-28T01:30:19.687Z,1.52
2023-02-28T01:32:47.223Z,2.15
2023-02-28T01:35:14.785Z,1.95
2023-02-28T01:37:42.300Z,2.03
2023-02-28T01:40:10.287Z,1.60
2023-02-28T01:42:37.864Z,2.33
2023-02-28T01:45:18.795Z,2.60
2023-02-28T01:47:47.079Z,1.90
2023-02-28T01:50:17.374Z,1.95
2023-02-28T01:52:45.662Z,1.90
2023-02-28T01:55:14.313Z,1.92
2023-02-28T01:57:44.834Z,2.05
2023-02-28T02:00:18.048Z,2.13
2023-02-28T02:02:47.286Z,2.08
2023-02-28T02:05:19.568Z,2.30
2023-02-28T02:07:50.330Z,2.08
2023-02-28T02:10:19.235Z,2.20
2023-02-28T02:12:49.732Z,1.52
2023-02-28T02:15:36.766Z,2.55
2023-02-28T02:18:09.851Z,1.55
2023-02-28T02:21:03.254Z,1.83
2023-02-28T02:23:35.399Z,2.33
2023-02-28T02:26:08.968Z,1.95
2023-02-28T02:28:54.915Z,2.17
2023-02-28T02:31:24.678Z,2.60
2023-02-28T02:34:10.646Z,4.35
2023-02-28T02:36:42.278Z,1.92
2023-02-28T02:39:12.557Z,3.85
2023-02-28T02:41:50.414Z,2.60
2023-02-28T02:44:26.349Z,2.60
2023-02-28T02:46:56.860Z,2.80
2023-02-28T02:49:28.136Z,2.15
2023-02-28T02:51:56.232Z,2.55
2023-02-28T02:54:30.398Z,2.25
2023-02-28T02:57:02.561Z,2.17
2023-02-28T02:59:30.803Z,2.40
2023-02-28T03:02:00.272Z,2.67
2023-02-28T03:04:30.667Z,3.03
2023-02-28T03:06:58.538Z,2.35
2023-02-28T03:09:28.014Z,2.70
2023-02-28T03:11:57.467Z,3.60
2023-02-28T03:14:46.922Z,2.22
2023-02-28T03:17:17.461Z,2.40
2023-02-28T03:19:57.960Z,2.25
2023-02-28T03:22:51.165Z,2.00
2023-02-28T03:25:31.746Z,2.83
2023-02-28T03:28:04.273Z,1.88
2023-02-28T03:30:38.539Z,2.58
2023-02-28T03:33:10.465Z,2.00
2023-02-28T03:35:40.923Z,2.85
2023-02-28T03:38:15.628Z,2.83
2023-02-28T03:40:45.371Z,2.17
2023-02-28T03:43:15.821Z,2.53
2023-02-28T03:45:43.701Z,1.88
2023-02-28T03:48:13.998Z,3.17
2023-02-28T03:50:42.672Z,2.15
2023-02-28T03:53:30.339Z,2.15
2023-02-28T03:56:02.667Z,2.15
2023-02-28T03:58:33.554Z,1.63
2023-02-28T04:01:14.653Z,2.05
2023-02-28T04:03:42.541Z,1.30
2023-02-28T04:06:11.974Z,2.38
2023-02-28T04:08:40.233Z,2.50
2023-02-28T04:11:17.758Z,2.53
2023-02-28T04:13:47.394Z,2.40
2023-02-28T04:16:33.599Z,2.22
2023-02-28T04:19:06.789Z,2.08
2023-02-28T04:21:37.183Z,2.33
2023-02-28T04:24:05.338Z,2.47
2023-02-28T04:26:33.985Z,2.55
2023-02-28T04:29:02.022Z,2.88
2023-02-28T04:31:29.898Z,2.75
2023-02-28T04:33:57.616Z,1.95
2023-02-28T04:36:25.163Z,3.25
2023-02-28T04:38:53.083Z,2.22
2023-02-28T04:41:21.157Z,2.60
2023-02-28T04:43:48.930Z,2.60
2023-02-28T04:46:17.014Z,2.67
2023-02-28T04:48:46.025Z,2.92
2023-02-28T04:51:15.185Z,2.30
2023-02-28T04:53:43.388Z,2.50
2023-02-28T04:56:13.634Z,3.20
2023-02-28T04:58:42.126Z,2.80
2023-02-28T05:01:18.713Z,2.90
2023-02-28T05:03:46.630Z,3.13
2023-02-28T05:06:14.716Z,2.42
2023-02-28T05:08:45.452Z,2.55
2023-02-28T05:11:35.407Z,2.78
2023-02-28T05:14:07.072Z,3.08
2023-02-28T05:16:34.814Z,2.72
2023-02-28T05:19:02.614Z,2.85
2023-02-28T05:21:40.662Z,3.40
2023-02-28T05:24:09.644Z,2.70
2023-02-28T05:26:38.035Z,3.20
2023-02-28T05:29:05.648Z,2.30
2023-02-28T05:31:33.746Z,2.72
2023-02-28T05:34:01.680Z,2.58
2023-02-28T05:36:30.076Z,3.38
2023-02-28T05:38:59.250Z,2.00
2023-02-28T05:41:28.052Z,2.47
2023-02-28T05:43:56.174Z,2.60
2023-02-28T05:46:24.785Z,3.33
2023-02-28T05:48:52.399Z,2.97
2023-02-28T05:51:20.013Z,2.50
2023-02-28T05:53:47.825Z,2.78
2023-02-28T05:56:16.162Z,2.85
2023-02-28T05:58:43.685Z,2.22
2023-02-28T06:01:26.867Z,2.47
2023-02-28T06:03:54.537Z,2.13
2023-02-28T06:06:24.813Z,2.30
2023-02-28T06:08:52.403Z,2.92
2023-02-28T06:11:21.594Z,2.72
2023-02-28T06:13:50.180Z,3.13
2023-02-28T06:16:17.737Z,2.63
2023-02-28T06:18:45.337Z,3.10
2023-02-28T06:21:13.912Z,2.90
2023-02-28T06:23:41.439Z,3.13
2023-02-28T06:26:09.237Z,2.92
2023-02-28T06:28:36.916Z,2.35
2023-02-28T06:31:08.487Z,3.08
2023-02-28T06:33:36.385Z,2.67
2023-02-28T06:36:04.786Z,3.20
2023-02-28T06:38:32.966Z,3.35
2023-02-28T06:41:02.881Z,2.70
2023-02-28T06:43:31.748Z,3.50
2023-02-28T06:46:00.026Z,2.97
2023-02-28T06:48:28.428Z,2.97
2023-02-28T06:51:10.512Z,2.72
2023-02-28T06:53:38.770Z,4.07
2023-02-28T06:56:08.007Z,3.10
2023-02-28T06:58:39.236Z,3.25
2023-02-28T07:01:07.656Z,3.45
2023-02-28T07:03:36.903Z,3.13
2023-02-28T07:06:05.772Z,2.92
2023-02-28T07:08:33.656Z,2.92
2023-02-28T07:11:01.248Z,4.10
2023-02-28T07:13:28.810Z,3.15
2023-02-28T07:16:00.289Z,3.05
2023-02-28T07:18:29.024Z,3.03
2023-02-28T07:20:56.842Z,3.75
2023-02-28T07:23:25.037Z,2.80
2023-02-28T07:25:52.811Z,3.13
2023-02-28T07:28:20.446Z,4.20
2023-02-28T07:30:47.996Z,3.17
2023-02-28T07:33:18.631Z,3.78
2023-02-28T07:35:49.904Z,3.72
2023-02-28T07:38:18.145Z,3.40
2023-02-28T07:40:45.678Z,3.17
2023-02-28T07:43:13.307Z,3.30
2023-02-28T07:45:40.847Z,2.95
2023-02-28T07:48:12.268Z,3.38
2023-02-28T07:50:39.858Z,4.53
2023-02-28T07:53:07.354Z,3.95
2023-02-28T07:55:34.915Z,3.92
2023-02-28T07:58:02.543Z,3.47
2023-02-28T08:00:31.011Z,4.93
2023-02-28T08:02:58.602Z,4.93
2023-02-28T08:05:26.533Z,5.50
2023-02-28T08:07:55.199Z,5.05
2023-02-28T08:10:22.757Z,5.82
2023-02-28T08:12:50.367Z,6.05
2023-02-28T08:15:17.897Z,6.57
2023-02-28T08:17:45.917Z,5.97
2023-02-28T08:20:13.717Z,6.03
2023-02-28T08:22:41.220Z,6.90
2023-02-28T08:25:09.078Z,6.68
2023-02-28T08:27:37.411Z,9.55
2023-02-28T08:30:05.354Z,7.90
2023-02-28T08:32:34.318Z,7.18
2023-02-28T08:35:01.989Z,6.82
2023-02-28T08:37:29.475Z,9.02
2023-02-28T08:39:56.922Z,6.88
2023-02-28T08:42:25.090Z,5.40
2023-02-28T08:44:52.785Z,5.57
2023-02-28T08:47:20.729Z,6.38
2023-02-28T08:49:48.339Z,5.97
2023-02-28T08:52:15.854Z,7.40
2023-02-28T08:54:43.436Z,6.93
2023-02-28T08:57:11.474Z,7.07
2023-02-28T08:59:39.010Z,7.07
2023-02-28T09:02:06.510Z,7.68
2023-02-28T09:04:35.348Z,7.28
2023-02-28T09:07:02.851Z,6.30
2023-02-28T09:09:30.360Z,5.70
2023-02-28T09:11:59.258Z,3.63
2023-02-28T09:14:26.839Z,5.70
2023-02-28T09:16:54.435Z,5.00
2023-02-28T09:19:22.306Z,4.13
2023-02-28T09:21:49.967Z,4.50
2023-02-28T09:24:17.927Z,4.35
2023-02-28T09:26:56.441Z,5.15
2023-02-28T09:29:31.296Z,4.38
2023-02-28T09:32:01.964Z,4.40
2023-02-28T09:34:32.486Z,3.78
2023-02-28T09:37:00.769Z,3.80
2023-02-28T09:39:28.986Z,4.38
2023-02-28T09:41:57.415Z,4.35
2023-02-28T09:44:33.982Z,5.07
2023-02-28T09:47:12.082Z,3.97
2023-02-28T09:49:44.295Z,5.25
2023-02-28T09:52:18.417Z,4.13
2023-02-28T09:54:45.944Z,4.35
2023-02-28T09:57:25.908Z,3.83
2023-02-28T10:00:19.096Z,4.82
2023-02-28T10:02:49.773Z,3.35
2023-02-28T10:05:18.989Z,4.18
2023-02-28T10:07:51.749Z,6.07
2023-02-28T10:10:31.368Z,3.22
2023-02-28T10:13:00.947Z,4.78
2023-02-28T10:15:29.886Z,4.78
2023-02-28T10:18:08.487Z,3.03
2023-02-28T10:20:39.166Z,3.85
2023-02-28T10:23:22.508Z,4.38
2023-02-28T10:26:10.848Z,3.30
2023-02-28T10:28:38.378Z,3.53
2023-02-28T10:31:06.063Z,3.58
2023-02-28T10:33:37.154Z,2.90
2023-02-28T10:36:05.803Z,2.25
2023-02-28T10:38:38.180Z,2.75
2023-02-28T10:41:08.086Z,2.83
2023-02-28T10:43:36.413Z,1.63
2023-02-28T10:46:06.216Z,3.10
2023-02-28T10:48:44.666Z,2.85
2023-02-28T10:51:13.692Z,1.52
2023-02-28T10:54:00.633Z,1.30
2023-02-28T10:56:28.703Z,2.65
2023-02-28T10:59:00.444Z,1.58
2023-02-28T11:01:34.428Z,1.98
2023-02-28T11:04:02.579Z,2.17
2023-02-28T11:06:34.778Z,2.10
2023-02-28T11:09:05.000Z,2.50
2023-02-28T11:11:33.932Z,2.35
2023-02-28T11:14:06.381Z,1.60
2023-02-28T11:16:37.878Z,2.13
2023-02-28T11:19:07.172Z,2.35
2023-02-28T11:21:41.643Z,2.75
2023-02-28T11:24:29.466Z,2.03
2023-02-28T11:26:57.437Z,2.65
2023-02-28T11:29:30.283Z,3.20
2023-02-28T11:32:12.904Z,2.28
2023-02-28T11:34:41.547Z,2.10
2023-02-28T11:37:16.523Z,1.70
2023-02-28T11:39:44.690Z,2.67
2023-02-28T11:42:24.708Z,2.65
2023-02-28T11:44:57.827Z,2.28
2023-02-28T11:47:47.204Z,2.90
2023-02-28T11:50:14.903Z,2.72
2023-02-28T11:52:45.466Z,2.83
2023-02-28T11:55:32.893Z,2.45
2023-02-28T11:58:26.395Z,3.33
2023-02-28T12:00:53.855Z,2.40
2023-02-28T12:03:23.993Z,2.22
2023-02-28T12:06:12.043Z,2.90
2023-02-28T12:08:50.447Z,2.90
2023-02-28T12:11:33.248Z,2.33
2023-02-28T12:14:19.264Z,3.45
2023-02-28T12:16:53.513Z,3.22
2023-02-28T12:19:41.410Z,2.25
2023-02-28T12:22:17.837Z,2.90
2023-02-28T12:24:48.345Z,2.95
2023-02-28T12:27:18.363Z,2.25
2023-02-28T12:29:49.900Z,3.10
2023-02-28T12:32:20.622Z,2.00
2023-02-28T12:34:51.106Z,2.38
2023-02-28T12:37:21.394Z,3.47
2023-02-28T12:39:51.576Z,2.40
2023-02-28T12:42:39.973Z,2.67
2023-02-28T12:45:11.998Z,2.20
2023-02-28T12:47:41.177Z,3.05
2023-02-28T12:50:13.013Z,2.33
2023-02-28T12:53:04.132Z,1.85
2023-02-28T12:55:31.652Z,2.47
2023-02-28T12:58:17.457Z,2.30
2023-02-28T13:01:06.498Z,1.88
2023-02-28T13:03:52.605Z,2.40
2023-02-28T13:06:29.302Z,2.47
2023-02-28T13:09:07.787Z,1.13
2023-02-28T13:11:41.794Z,2.08
2023-02-28T13:14:29.534Z,2.70
2023-02-28T13:16:59.363Z,2.15
2023-02-28T13:19:34.769Z,1.52
2023-02-28T13:22:02.925Z,1.85
2023-02-28T13:24:36.355Z,1.48
2023-02-28T13:29:42.066Z,2.55
2023-02-28T13:32:10.079Z,1.90
2023-02-28T13:34:50.097Z,2.55
2023-02-28T13:37:23.713Z,3.13
2023-02-28T13:39:52.689Z,2.03
2023-02-28T13:42:28.992Z,1.55
2023-02-28T13:45:05.615Z,1.75
2023-02-28T13:47:45.793Z,1.23
2023-02-28T13:50:21.732Z,1.95
2023-02-28T13:53:03.452Z,1.95
2023-02-28T13:55:37.158Z,3.10
2023-02-28T13:58:16.796Z,2.63
2023-02-28T14:00:48.749Z,2.05
2023-02-28T14:03:16.308Z,2.25
2023-02-28T14:05:46.975Z,2.60
2023-02-28T14:08:20.330Z,2.03
2023-02-28T14:10:49.225Z,2.80
2023-02-28T14:13:39.432Z,2.80
2023-02-28T14:16:08.798Z,1.67
2023-02-28T14:18:37.535Z,1.92
2023-02-28T14:21:13.466Z,1.75
2023-02-28T14:23:47.216Z,1.73
2023-02-28T14:29:12.346Z,1.83
2023-02-28T14:31:43.610Z,1.95
2023-02-28T14:34:13.808Z,2.22
2023-02-28T14:36:43.495Z,2.20
2023-02-28T14:39:16.564Z,2.10
2023-02-28T14:41:45.332Z,1.75
2023-02-28T14:44:15.876Z,1.60
2023-02-28T14:46:44.458Z,1.98
2023-02-28T14:49:17.919Z,1.15
2023-02-28T14:51:45.707Z,1.90
2023-02-28T14:54:16.397Z,1.55
2023-02-28T14:56:44.000Z,1.88
2023-02-28T14:59:43.863Z,2.22
2023-02-28T15:02:32.922Z,1.38
2023-02-28T15:05:01.817Z,1.88
2023-02-28T15:07:32.905Z,2.30
2023-02-28T15:10:09.592Z,1.98
2023-02-28T15:12:37.720Z,1.58
2023-02-28T15:15:06.107Z,1.70
2023-02-28T15:17:33.727Z,1.38
2023-02-28T15:20:01.411Z,1.10
2023-02-28T15:22:31.360Z,2.03
2023-02-28T15:24:59.640Z,0.90
2023-02-28T15:27:29.042Z,1.52
2023-02-28T15:29:58.347Z,1.80
2023-02-28T15:32:30.817Z,1.00
2023-02-28T15:34:59.042Z,1.13
2023-02-28T15:37:39.061Z,1.58
2023-02-28T15:40:18.055Z,1.48
2023-02-28T15:43:01.028Z,1.25
2023-02-28T15:45:30.221Z,1.00
2023-02-28T15:48:00.051Z,1.95
2023-02-28T15:50:31.983Z,1.83
2023-02-28T15:52:59.553Z,1.58
2023-02-28T15:55:33.390Z,1.70
2023-02-28T15:58:02.986Z,0.98
2023-02-28T16:00:31.723Z,2.08
2023-02-28T16:02:59.347Z,1.52
2023-02-28T16:05:34.315Z,1.90
2023-02-28T16:08:21.981Z,1.73
2023-02-28T16:10:49.734Z,1.10
2023-02-28T16:13:17.710Z,1.63
2023-02-28T16:15:45.757Z,1.80
2023-02-28T16:18:14.150Z,1.90
2023-02-28T16:20:42.144Z,2.05
2023-02-28T16:23:09.756Z,1.70
2023-02-28T16:25:42.237Z,1.25
2023-02-28T16:28:17.477Z,1.50
2023-02-28T16:30:45.018Z,1.92
2023-02-28T16:33:12.547Z,1.55
2023-02-28T16:35:40.239Z,1.80
2023-02-28T16:38:07.805Z,1.05
2023-02-28T16:40:37.184Z,1.95
2023-02-28T16:43:09.026Z,1.85
2023-02-28T16:45:36.533Z,1.20
2023-02-28T16:48:05.090Z,1.13
2023-02-28T16:50:35.172Z,1.40
2023-02-28T16:53:02.878Z,1.00
2023-02-28T16:55:30.465Z,1.25
2023-02-28T16:57:59.666Z,1.58
2023-02-28T17:00:28.648Z,1.15
2023-02-28T17:02:56.980Z,1.25
2023-02-28T17:05:25.129Z,1.60
2023-02-28T17:07:52.736Z,1.40
2023-02-28T17:10:21.846Z,1.20
2023-02-28T17:12:49.510Z,0.90
2023-02-28T17:15:18.198Z,0.95
2023-02-28T17:17:46.440Z,1.15
2023-02-28T17:20:31.936Z,1.98
2023-02-28T17:22:59.475Z,1.02
2023-02-28T17:25:26.995Z,1.20
2023-02-28T17:27:54.525Z,0.90
2023-02-28T17:30:28.767Z,0.98
2023-02-28T17:32:59.287Z,0.90
2023-02-28T17:35:28.299Z,1.27
2023-02-28T17:37:55.903Z,1.23
2023-02-28T17:40:24.684Z,1.10
2023-02-28T17:42:53.813Z,2.55
2023-02-28T17:45:21.458Z,1.55
2023-02-28T17:47:51.904Z,1.35
2023-02-28T17:50:20.793Z,1.00
2023-02-28T17:52:48.654Z,1.45
2023-02-28T17:55:16.346Z,1.33
2023-02-28T17:57:43.964Z,1.23
2023-02-28T18:00:15.267Z,1.05
2023-02-28T18:02:43.351Z,0.90
2023-02-28T18:05:11.863Z,1.17
2023-02-28T18:07:40.170Z,1.38
2023-02-28T18:10:08.757Z,1.90
2023-02-28T18:12:36.350Z,2.20
2023-02-28T18:15:04.070Z,1.90
2023-02-28T18:17:31.624Z,1.45
2023-02-28T18:20:00.232Z,1.67
2023-02-28T18:22:27.723Z,1.45
2023-02-28T18:24:55.315Z,1.27
2023-02-28T18:27:22.860Z,1.35
2023-02-28T18:29:51.826Z,1.58
2023-02-28T18:32:19.762Z,1.20
2023-02-28T18:34:48.051Z,1.83
2023-02-28T18:37:16.817Z,4.80
2023-02-28T18:39:44.362Z,2.42
2023-02-28T18:42:11.905Z,1.73
2023-02-28T18:44:39.424Z,1.30
2023-02-28T18:47:06.940Z,2.03
2023-02-28T18:49:36.201Z,1.25
2023-02-28T18:52:03.707Z,2.47
2023-02-28T18:54:31.226Z,1.80
2023-02-28T18:56:58.746Z,1.75
2023-02-28T18:59:26.838Z,1.80
2023-02-28T19:01:54.474Z,1.67
2023-02-28T19:04:24.607Z,1.73
2023-02-28T19:06:52.143Z,0.95
2023-02-28T19:09:19.740Z,1.15
2023-02-28T19:11:47.232Z,1.48
2023-02-28T19:14:14.711Z,2.00
2023-02-28T19:16:42.510Z,2.30
2023-02-28T19:19:10.042Z,1.85
2023-02-28T19:21:37.811Z,2.00
2023-02-28T19:24:05.473Z,2.00
2023-02-28T19:26:33.173Z,1.23
2023-02-28T19:29:06.566Z,1.20
2023-02-28T19:34:02.455Z,1.60
2023-02-28T19:36:30.102Z,1.02
2023-02-28T19:38:57.766Z,1.35
2023-02-28T19:41:25.270Z,1.35
2023-02-28T19:43:54.248Z,0.93
2023-02-28T19:46:21.747Z,1.33
2023-02-28T19:48:49.488Z,1.92
2023-02-28T19:53:45.703Z,2.90
2023-02-28T19:56:13.225Z,1.80
2023-02-28T19:58:40.872Z,1.40
2023-02-28T20:01:15.958Z,1.40
2023-02-28T20:03:43.936Z,1.48
2023-02-28T20:06:14.461Z,0.93
2023-02-28T20:08:42.893Z,1.35
2023-02-28T20:11:11.794Z,1.00
2023-02-28T20:13:39.445Z,1.88
2023-02-28T20:16:15.525Z,1.98
2023-02-28T20:18:45.202Z,1.15
2023-02-28T20:21:13.484Z,1.35
2023-02-28T20:23:41.758Z,2.58
2023-02-28T20:26:10.558Z,3.03
2023-02-28T20:28:38.602Z,1.00
2023-02-28T20:31:16.882Z,2.38
2023-02-28T20:33:50.437Z,3.03
2023-02-28T20:36:22.051Z,1.73
2023-02-28T20:38:50.290Z,2.15
2023-02-28T20:41:17.964Z,4.10
2023-02-28T20:43:46.368Z,1.77
2023-02-28T20:46:14.330Z,3.30
2023-02-28T20:48:42.016Z,1.50
2023-02-28T20:51:09.912Z,1.38
2023-02-28T20:53:37.457Z,1.75
2023-02-28T20:56:06.903Z,2.17
2023-02-28T20:58:36.506Z,0.98
2023-02-28T21:01:05.196Z,1.67
2023-02-28T21:03:32.663Z,1.40
2023-02-28T21:06:01.115Z,1.75
2023-02-28T21:08:34.723Z,1.55
2023-02-28T21:11:02.457Z,1.52
2023-02-28T21:13:29.986Z,1.67
2023-02-28T21:15:58.464Z,1.95
2023-02-28T21:18:26.006Z,2.10
2023-02-28T21:20:53.622Z,3.63
2023-02-28T21:23:21.094Z,2.13
2023-02-28T21:25:48.696Z,5.00
2023-02-28T21:28:16.232Z,3.63
2023-02-28T21:30:43.713Z,2.83
2023-02-28T21:33:11.883Z,3.20
2023-02-28T21:35:39.752Z,3.78
2023-02-28T21:38:07.254Z,5.07
2023-02-28T21:40:38.071Z,5.32
2023-02-28T21:43:05.764Z,3.20
2023-02-28T21:45:34.781Z,2.40
2023-02-28T21:48:02.316Z,4.10
2023-02-28T21:50:29.823Z,3.40
2023-02-28T21:52:57.277Z,2.40
2023-02-28T21:55:24.942Z,2.95
2023-02-28T21:57:52.539Z,6.47
2023-02-28T22:00:20.642Z,3.30
2023-02-28T22:02:48.225Z,3.75
2023-02-28T22:05:15.780Z,3.88
2023-02-28T22:07:45.225Z,3.83
2023-02-28T22:10:13.614Z,4.32
2023-02-28T22:12:41.097Z,4.13
2023-02-28T22:15:08.733Z,4.75
2023-02-28T22:17:36.209Z,3.25
2023-02-28T22:20:04.271Z,3.67
2023-02-28T22:22:32.208Z,3.55
2023-02-28T22:24:59.818Z,3.47
2023-02-28T22:27:27.383Z,5.82
2023-02-28T22:29:58.536Z,4.07
2023-02-28T22:32:26.113Z,2.42
2023-02-28T22:34:53.714Z,3.05
2023-02-28T22:37:21.181Z,3.28
2023-02-28T22:39:48.676Z,3.10
2023-02-28T22:42:16.470Z,3.75
2023-02-28T22:44:43.989Z,2.90
2023-02-28T22:47:12.020Z,3.15
2023-02-28T22:49:39.688Z,2.67
2023-02-28T22:52:07.196Z,3.28
2023-02-28T22:54:34.691Z,3.10
2023-02-28T22:57:02.256Z,2.67
2023-02-28T22:59:29.709Z,2.83
2023-02-28T23:01:57.793Z,3.45
2023-02-28T23:04:27.583Z,4.32
2023-02-28T23:07:01.328Z,3.65
2023-02-28T23:09:28.868Z,3.65
2023-02-28T23:11:56.437Z,2.55
2023-02-28T23:14:24.185Z,4.30
2023-02-28T23:16:54.484Z,2.92
2023-02-28T23:19:22.120Z,2.33
2023-02-28T23:21:50.283Z,3.22
2023-02-28T23:24:18.844Z,2.60
2023-02-28T23:26:47.585Z,2.40
2023-02-28T23:29:16.709Z,3.20
2023-02-28T23:31:44.573Z,1.92
2023-02-28T23:34:12.330Z,2.60
2023-02-28T23:36:44.133Z,2.67
2023-02-28T23:39:16.551Z,2.50
2023-02-28T23:41:44.529Z,1.90
2023-02-28T23:44:17.741Z,1.77
2023-02-28T23:46:46.425Z,2.58
2023-02-28T23:49:14.318Z,2.63
2023-02-28T23:51:42.081Z,2.20
2023-02-28T23:54:09.585Z,3.30
2023-02-28T23:56:37.078Z,2.20
2023-02-28T23:59:04.789Z,2.42
